Forside
METAR-TAF:

METAR-TAF

Lufthavne :

John H. Batten Airport

Racine, Wisconsin, USA

Breddekreds: 42-45-31N, længdekreds: 087-49-04W, højde: 205 m

Aktuelle vejr

Denne rapport blev lavet for 14 minutter siden, kl. 21:53 UTC
Vind 8 kt fra vest med vindstød på up til 16 kt
Temperatur 1°C
Fugtighed 80%
Tryk 1012 hPa
Sigt: 12.9 km
Overskyet i en højde af 1000 ft

METAR: KRAC 262153Z AUTO 27008G16KT 8SM OVC010 01/M02 A2987 RMK AO2 SLP122 T00111022 $

Tid: 16:07 (22:07 UTC)


TAF: fraværende

Vejrobservationer og prognoser fra mere end 4000 lufthavne (METAR og TAF).

De gule og røde prikker repræsenterer de meteorologiske stationer.

Flyt musen over at se navnet på stationen.

Så klik over at se vejr observationer og prognoser.

At skifte det kort: Klik på de grønne knapper med et sort kors for at zoome ind; på den grønne knap med en bindestreg for at zoome ud; eller på de grønne pile for tilstødende kort.


METAR-TAF: